Airfield :
LOGIN :

Register | Disclaimer

   EN    FR    IT 

 










Legend :    VFR   Marginal VFR   IFR   Intensive IFR   Very Intensive IFR
Visi :
Ceiling :
>= 8 km
>= 3000ft
5 to 8 km
1000 to 3000 ft
1500m to 5 km
500 to 1000 ft
800 to 1500m
200 to 500 ft
< 800m
< 200 ft
Symbols :   Thunderstorms  Fog  Heavy snow  Heavy precipitations  Wind > 20 kt
SIGMETs :     Misc.  Thunderstorms  Icing  Turbulence  Mountain Waves  Volcanic Ashes







- Airport Elevation : 160 ft
- IATA code : LRT
- Download approach charts


LFRH - Lorient Lann Bihoue

CURRENT METAR :
  • 160200Z AUTO 23012KT 5000 RA BR FEW008 BKN013 OVC018 14/13 Q1019 TEMPO 2500 RA BKN005 OVC008

EXPIRED METARs :
  • 160130Z AUTO 23010KT 9999 BKN014 BKN021 OVC028 15/13 Q1019 TEMPO 2500 RA BKN005 OVC008
  • 160100Z AUTO 22011KT 8000 -RADZ BKN012 OVC018 15/13 Q1019 TEMPO 2500 RA BKN005 OVC008
  • 160030Z AUTO 23012KT 9999 OVC017 15/13 Q1019 TEMPO 2500 RA BKN005 OVC008
  • 160000Z AUTO 23011KT 9999 BKN014 OVC021 15/13 Q1019 TEMPO 2500 RA BKN005 OVC008
  • 152330Z AUTO 24011KT 9999 FEW009 BKN024 14/13 Q1019 TEMPO 2500 RA BKN005 OVC008

TAF TAF LFRH
Valid from the 16 at 00:00 until the 17 at 00:00 UTC


152300Z 1600/1624 24010KT 9999 BKN012 OVC020
TEMPO 1600/1610 4000 RA BKN008 OVC010
PROB40
TEMPO 1600/1610 2500 RA BKN005 OVC008
BECMG 1610/1612 BKN020
TEMPO 1616/1618 SCT025
No reported NOTAMs for that airfield.



MET'MAP, your aeronautical weather chart ! - Copyright ORBIFLY December 2007 - Disclaimer

ORBIFLY MET'MAP TEAM :

Programming & Development : Alexandra Zaïnal
Concept & Development : Baudouin d'Aumeries
Co-Development & Prog : Marc-Olivier Méhu
Technical & hardware support : Manuel Goepfert

Contact : metmap@orbifly.com




SOURCES & CREDITS :

   NOAA